Aviation Digital Data Service (ADDS)

Output produced by TAFs form (0932 UTC 25 November 2017)
found at http://www.aviationweather.gov/adds/tafs/
 
METAR text: RJOA 250900Z VRB01KT 9999 FEW030 BKN/// 05/01 Q1026
Conditions at: RJOA (NEW HIROSHIMA , JP) observed 0900 UTC 25 November 2017
Temperature: 5.0°C (41°F)
Dewpoint: 1.0°C (34°F) [RH = 75%]
Pressure (altimeter): 30.30 inches Hg (1026.0 mb)
Winds: variable direction winds at 1 MPH (1 knots; 0.5 m/s)
Visibility: 6 or more miles (10+ km)
Ceiling: at least 12,000 feet AGL
Clouds: few clouds at 3000 feet AGL
Weather: no significant weather observed at this time

Forecast for: RJOA (NEW HIROSHIMA , JP)
Text: TAF RJOA 250508Z 2506/2612 21006KT 9999 FEW020 SCT035
Forecast period: 0600 UTC 25 November 2017 to 1200 UTC 26 November 2017
Forecast type: FROM: standard forecast or significant change
Winds: from the SSW (210 degrees) at 7 MPH (6 knots; 3.1 m/s)
Visibility: 6 or more miles (10+ km)
Clouds: few clouds at 2000 feet AGL
scattered clouds at 3500 feet AGL
Weather: no significant weather forecast for this period